Time;durP1;ratioP1;P1;durP2;ratioP2;P2;SDS_P1;SDS_P2;PMS_P1;PMS_P2;Temp;Humidity;BMP_temperature;BMP_pressure;BME280_temperature;BME280_humidity;BME280_pressure;Samples;Min_cycle;Max_cycle;Signal;HPM_P1;HPM_P2
2022/02/11 00:00:17;;;;;;;4.80;4.28;;;6.20;76.40;;;;;;5032956;28;20207;-88
2022/02/11 00:02:19;;;;;;;9.00;5.35;;;6.30;76.70;;;;;;5043176;28;20275;-88
2022/02/11 00:07:35;;;;;;;12.70;5.30;;;6.20;76.90;;;;;;5059959;28;20539;-88
2022/02/11 00:10:03;;;;;;;8.63;4.32;;;6.20;77.00;;;;;;5038842;28;20853;-88
2022/02/11 00:12:28;;;;;;;8.18;4.68;;;6.20;77.10;;;;;;5038694;28;20645;-88
2022/02/11 00:17:27;;;;;;;6.88;4.20;;;6.20;77.10;;;;;;5057361;28;20189;-88
2022/02/11 00:19:53;;;;;;;11.60;5.45;;;6.10;77.20;;;;;;5043031;28;20329;-88
2022/02/11 00:22:18;;;;;;;8.97;4.47;;;6.00;77.30;;;;;;5041468;28;20283;-87
2022/02/11 00:24:44;;;;;;;8.47;4.97;;;6.00;77.40;;;;;;5055916;28;20181;-88
2022/02/11 00:30:28;;;;;;;10.23;4.78;;;6.10;77.50;;;;;;5056063;28;20203;-88
2022/02/11 00:35:29;;;;;;;10.75;4.65;;;6.00;77.50;;;;;;5044865;28;20172;-88
2022/02/11 00:37:56;;;;;;;8.25;3.97;;;6.00;77.60;;;;;;5039418;28;20623;-88
2022/02/11 00:40:47;;;;;;;10.82;4.22;;;6.00;77.30;;;;;;5041275;28;20193;-88
2022/02/11 00:45:54;;;;;;;13.50;5.40;;;6.00;77.20;;;;;;5061565;28;20191;-88
2022/02/11 01:02:14;;;;;;;8.02;4.03;;;5.90;77.00;;;;;;5056969;28;20164;-88
2022/02/11 01:04:40;;;;;;;5.90;3.88;;;5.80;76.60;;;;;;5039281;28;20170;-88
2022/02/11 01:07:06;;;;;;;16.23;4.43;;;5.80;76.50;;;;;;5044873;28;20301;-88
2022/02/11 01:09:33;;;;;;;5.53;3.10;;;5.90;77.30;;;;;;5059988;28;20223;-88
2022/02/11 01:12:02;;;;;;;7.82;3.55;;;5.90;76.40;;;;;;5055784;28;20181;-88
2022/02/11 01:14:41;;;;;;;17.45;5.22;;;5.90;76.30;;;;;;5037692;28;20185;-88
2022/02/11 01:17:18;;;;;;;13.32;3.92;;;5.80;76.00;;;;;;5037696;28;20680;-88
2022/02/11 01:36:14;;;;;;;12.38;3.10;;;6.20;75.00;;;;;;5048028;28;20211;-88
2022/02/11 01:39:14;;;;;;;3.28;2.40;;;6.40;74.80;;;;;;5055338;28;20219;-88
2022/02/11 01:52:28;;;;;;;12.05;3.92;;;6.30;74.80;;;;;;5040735;28;20257;-88
2022/02/11 02:30:07;;;;;;;15.53;3.53;;;6.70;74.70;;;;;;5062692;28;20208;-88
2022/02/11 03:49:29;;;;;;;6.32;2.00;;;6.80;75.50;;;;;;5061028;28;20754;-88
2022/02/11 04:59:58;;;;;;;7.15;2.17;;;6.50;75.20;;;;;;5055909;28;20199;-86
2022/02/11 05:02:26;;;;;;;12.40;3.80;;;6.70;75.40;;;;;;5037908;28;20548;-87
2022/02/11 05:04:53;;;;;;;9.10;2.30;;;6.70;75.30;;;;;;5038122;28;20647;-86
2022/02/11 05:07:19;;;;;;;5.82;2.10;;;6.60;75.10;;;;;;5037552;28;20243;-86
2022/02/11 05:09:44;;;;;;;8.53;3.43;;;6.60;75.10;;;;;;5049790;22;20220;-91
2022/02/11 05:12:10;;;;;;;13.97;3.03;;;6.70;75.20;;;;;;5034358;28;20419;-91
2022/02/11 05:14:36;;;;;;;7.50;2.47;;;6.60;75.20;;;;;;5016571;28;20338;-89
2022/02/11 05:17:01;;;;;;;12.87;2.20;;;6.50;75.40;;;;;;5016355;28;20207;-91
2022/02/11 05:19:27;;;;;;;12.63;2.60;;;6.50;75.70;;;;;;5016293;28;20228;-91
2022/02/11 05:21:54;;;;;;;12.90;2.63;;;6.40;75.80;;;;;;5034436;28;20632;-91
2022/02/11 05:24:20;;;;;;;7.07;2.47;;;6.50;76.00;;;;;;5015930;28;20694;-91
2022/02/11 05:26:46;;;;;;;12.07;3.80;;;6.50;76.00;;;;;;5017282;28;20178;-91
2022/02/11 05:29:11;;;;;;;8.80;3.30;;;6.50;76.10;;;;;;5034638;28;20449;-90
2022/02/11 05:31:37;;;;;;;11.60;3.03;;;6.60;76.00;;;;;;5016019;28;20205;-91
2022/02/11 05:34:03;;;;;;;10.53;2.83;;;6.60;76.00;;;;;;5015989;28;20178;-91
2022/02/11 05:36:29;;;;;;;5.85;2.22;;;6.70;76.10;;;;;;5021679;28;20200;-89
2022/02/11 05:38:54;;;;;;;10.87;2.90;;;6.70;76.00;;;;;;5026821;28;20209;-92
2022/02/11 05:41:20;;;;;;;20.67;3.60;;;6.70;76.00;;;;;;5017130;28;20228;-92
2022/02/11 05:43:47;;;;;;;18.55;3.92;;;6.70;75.90;;;;;;5015452;28;20474;-91
2022/02/11 05:46:12;;;;;;;18.13;3.65;;;6.70;76.10;;;;;;5027396;28;20257;-90
2022/02/11 05:48:43;;;;;;;15.30;2.75;;;6.60;76.20;;;;;;5030779;28;20178;-91
2022/02/11 05:51:09;;;;;;;18.10;4.07;;;6.50;77.30;;;;;;5024980;28;20245;-91
2022/02/11 05:53:35;;;;;;;22.13;2.90;;;6.50;76.80;;;;;;5031629;28;20232;-92
2022/02/11 05:56:01;;;;;;;13.63;3.08;;;6.60;76.70;;;;;;5017784;28;20202;-92
2022/02/11 05:58:28;;;;;;;13.95;3.60;;;6.60;76.70;;;;;;5035951;28;20178;-91
2022/02/11 06:00:54;;;;;;;13.98;3.05;;;6.60;76.70;;;;;;5029989;28;20249;-92
2022/02/11 06:03:20;;;;;;;12.48;3.20;;;6.70;76.50;;;;;;5020881;28;20182;-92
2022/02/11 06:05:45;;;;;;;15.07;2.97;;;6.70;76.60;;;;;;5015865;28;20620;-90
2022/02/11 06:08:11;;;;;;;12.70;3.23;;;6.70;76.70;;;;;;5016195;28;20184;-91
2022/02/11 06:10:37;;;;;;;15.40;3.13;;;6.60;76.70;;;;;;5032769;28;20276;-91
2022/02/11 06:13:33;;;;;;;9.90;4.13;;;6.70;76.90;;;;;;5016187;28;20431;-91
2022/02/11 06:15:59;;;;;;;16.85;3.63;;;6.80;76.90;;;;;;5014503;28;20170;-91
2022/02/11 06:18:25;;;;;;;21.58;2.92;;;6.80;77.00;;;;;;5019860;28;20245;-91
2022/02/11 06:21:03;;;;;;;23.17;3.10;;;6.80;77.10;;;;;;5024776;28;20522;-90
2022/02/11 06:23:31;;;;;;;10.90;2.65;;;6.80;77.20;;;;;;5016462;28;20177;-90
2022/02/11 06:26:00;;;;;;;24.10;3.60;;;6.80;77.40;;;;;;5018998;28;20273;-89
2022/02/11 06:28:25;;;;;;;18.02;3.30;;;6.80;77.30;;;;;;5032065;28;20161;-90
2022/02/11 06:30:51;;;;;;;11.20;3.43;;;6.80;77.20;;;;;;5035482;28;20236;-92
2022/02/11 06:33:18;;;;;;;17.50;3.30;;;6.80;77.20;;;;;;5033787;28;20178;-90
2022/02/11 06:35:44;;;;;;;10.68;2.83;;;6.80;77.50;;;;;;5040040;28;20193;-90
2022/02/11 06:38:10;;;;;;;12.98;2.80;;;6.80;77.60;;;;;;5026254;28;20174;-91
2022/02/11 06:40:37;;;;;;;22.73;3.10;;;6.80;77.50;;;;;;5023416;28;20198;-91
2022/02/11 06:43:04;;;;;;;11.95;4.57;;;6.80;77.60;;;;;;5015055;28;20178;-91
2022/02/11 06:45:29;;;;;;;18.35;5.03;;;6.80;77.40;;;;;;5016388;28;20594;-90
2022/02/11 06:47:55;;;;;;;16.83;4.23;;;6.80;77.30;;;;;;5018637;28;20181;-91
2022/02/11 06:50:21;;;;;;;15.13;3.93;;;6.70;77.60;;;;;;5020017;28;20606;-92
2022/02/11 06:52:49;;;;;;;14.50;3.27;;;6.70;78.10;;;;;;5020617;28;20228;-91
2022/02/11 06:55:14;;;;;;;22.42;5.15;;;6.70;78.20;;;;;;5019609;28;20520;-92
2022/02/11 06:57:42;;;;;;;14.40;4.27;;;7.00;78.20;;;;;;5019811;28;20636;-91
2022/02/11 07:00:09;;;;;;;16.95;5.35;;;6.70;78.10;;;;;;5019725;28;20437;-91
2022/02/11 07:02:35;;;;;;;14.80;3.72;;;6.70;78.00;;;;;;5020564;28;20181;-90
2022/02/11 07:05:02;;;;;;;25.00;4.90;;;6.60;77.80;;;;;;5019989;28;20519;-91
2022/02/11 07:07:28;;;;;;;18.95;4.80;;;6.60;77.60;;;;;;5018893;28;20435;-91
2022/02/11 07:09:54;;;;;;;21.87;4.13;;;6.60;77.50;;;;;;5021931;28;20218;-92
2022/02/11 07:12:23;;;;;;;25.20;4.10;;;6.70;77.60;;;;;;5021223;28;20760;-91
2022/02/11 07:14:49;;;;;;;14.05;3.28;;;6.70;77.50;;;;;;5038939;28;20182;-91
2022/02/11 07:17:15;;;;;;;16.47;4.20;;;6.60;77.40;;;;;;5021997;28;20201;-91
2022/02/11 07:19:41;;;;;;;20.73;4.83;;;6.60;77.10;;;;;;5021786;28;20198;-91
2022/02/11 07:22:06;;;;;;;20.50;4.60;;;6.70;78.50;;;;;;5021422;28;20189;-91
2022/02/11 07:24:32;;;;;;;22.27;3.93;;;6.70;78.10;;;;;;5021349;28;20421;-91
2022/02/11 07:26:58;;;;;;;28.83;4.60;;;6.70;77.70;;;;;;5021691;28;20182;-91
2022/02/11 07:29:24;;;;;;;39.87;5.63;;;6.70;77.70;;;;;;5023844;28;20440;-91
2022/02/11 07:31:50;;;;;;;35.37;4.47;;;6.80;78.10;;;;;;5033218;28;20432;-91
2022/02/11 07:34:16;;;;;;;18.00;4.53;;;7.00;79.00;;;;;;5020121;28;20460;-91
2022/02/11 07:36:42;;;;;;;15.05;3.70;;;7.00;78.40;;;;;;5021412;28;20543;-91
2022/02/11 07:39:08;;;;;;;13.15;3.28;;;7.10;77.90;;;;;;5023234;28;20209;-91
2022/02/11 07:41:34;;;;;;;9.90;3.35;;;7.00;77.00;;;;;;5033711;28;20193;-91
2022/02/11 07:44:00;;;;;;;12.93;4.23;;;7.20;77.40;;;;;;5033876;28;20244;-90
2022/02/11 07:46:26;;;;;;;15.80;3.30;;;7.30;77.50;;;;;;5022454;28;20189;-90
2022/02/11 07:48:52;;;;;;;14.15;4.30;;;7.40;77.60;;;;;;5022049;28;20244;-90
2022/02/11 07:51:18;;;;;;;33.47;4.60;;;7.40;77.50;;;;;;5020861;28;20596;-91
2022/02/11 07:53:45;;;;;;;23.70;3.60;;;7.50;78.10;;;;;;5020828;28;20419;-91
2022/02/11 07:56:12;;;;;;;11.80;3.22;;;7.60;78.50;;;;;;5021294;28;20550;-91
2022/02/11 07:58:39;;;;;;;17.45;5.43;;;7.50;77.60;;;;;;5037757;28;20177;-91
2022/02/11 08:01:05;;;;;;;13.02;4.57;;;7.60;78.00;;;;;;5020053;28;20178;-91
2022/02/11 08:03:32;;;;;;;16.00;3.67;;;7.50;77.90;;;;;;5020183;28;20232;-90
2022/02/11 08:05:58;;;;;;;21.92;3.53;;;7.50;77.90;;;;;;5022386;28;20173;-91
2022/02/11 08:08:27;;;;;;;22.43;4.20;;;7.70;78.60;;;;;;5048538;28;20193;-91
2022/02/11 08:10:56;;;;;;;15.85;3.45;;;7.80;77.90;;;;;;5030944;28;20198;-91
2022/02/11 08:13:22;;;;;;;14.82;3.72;;;7.70;77.30;;;;;;5027969;28;20842;-91
2022/02/11 08:15:47;;;;;;;25.30;3.60;;;7.70;76.40;;;;;;5020497;28;20273;-91
2022/02/11 08:18:13;;;;;;;14.17;3.10;;;7.80;76.60;;;;;;5019989;28;20558;-90
2022/02/11 08:20:39;;;;;;;9.33;3.20;;;7.60;75.00;;;;;;5026840;28;20209;-91
2022/02/11 08:23:04;;;;;;;16.33;3.43;;;7.70;75.50;;;;;;5025919;28;20240;-91
2022/02/11 08:25:33;;;;;;;16.10;4.23;;;7.70;74.80;;;;;;5025209;28;20933;-91
2022/02/11 08:28:02;;;;;;;15.45;3.00;;;7.80;74.30;;;;;;5018148;28;20182;-91
2022/02/11 08:30:28;;;;;;;19.38;3.75;;;7.90;74.00;;;;;;5017707;28;20202;-91
2022/02/11 08:32:54;;;;;;;9.63;2.97;;;7.80;73.40;;;;;;5018219;28;20552;-91
2022/02/11 08:35:19;;;;;;;18.43;3.13;;;7.60;73.30;;;;;;5018274;28;20201;-91
2022/02/11 08:37:45;;;;;;;22.57;3.57;;;7.70;73.70;;;;;;5020199;28;20289;-91
2022/02/11 08:40:11;;;;;;;15.67;3.60;;;7.70;73.10;;;;;;5037740;28;21008;-90
2022/02/11 08:42:37;;;;;;;11.90;2.93;;;7.80;72.90;;;;;;5018699;28;20289;-90
2022/02/11 08:45:03;;;;;;;9.77;3.33;;;7.80;72.80;;;;;;5020141;28;20449;-90
2022/02/11 08:47:31;;;;;;;21.42;3.65;;;7.70;72.20;;;;;;5017914;28;20591;-90
2022/02/11 08:49:59;;;;;;;16.08;3.67;;;7.60;71.80;;;;;;5019473;28;20251;-90
2022/02/11 08:52:25;;;;;;;20.85;2.90;;;7.50;71.50;;;;;;5018596;28;20252;-90
2022/02/11 08:54:52;;;;;;;9.07;3.47;;;7.40;71.30;;;;;;5018116;28;20185;-90
2022/02/11 08:57:18;;;;;;;21.27;3.33;;;7.40;71.50;;;;;;5020096;28;20233;-90
2022/02/11 08:59:43;;;;;;;9.03;2.30;;;7.50;71.50;;;;;;5025153;28;20692;-90
2022/02/11 09:02:11;;;;;;;8.10;2.47;;;7.60;70.80;;;;;;5044968;28;20177;-90
2022/02/11 09:04:39;;;;;;;17.08;3.15;;;7.50;69.90;;;;;;5025756;28;20648;-91
2022/02/11 09:07:06;;;;;;;12.35;2.50;;;7.60;70.00;;;;;;5023386;28;20193;-89
2022/02/11 09:09:32;;;;;;;11.43;2.50;;;7.70;70.20;;;;;;5022764;28;20248;-88
2022/02/11 09:11:58;;;;;;;8.43;2.80;;;7.70;69.50;;;;;;5021971;28;20213;-91
2022/02/11 09:14:24;;;;;;;17.75;3.67;;;7.60;69.20;;;;;;5021830;28;20489;-89
2022/02/11 09:16:50;;;;;;;13.40;3.05;;;7.60;69.50;;;;;;5024672;28;20316;-89
2022/02/11 09:19:16;;;;;;;14.80;2.80;;;7.60;69.50;;;;;;5032478;28;20190;-89
2022/02/11 09:21:41;;;;;;;11.60;2.60;;;7.50;69.50;;;;;;5015632;28;20309;-90
2022/02/11 09:24:08;;;;;;;14.57;3.70;;;7.30;69.50;;;;;;4998756;28;20190;-90
2022/02/11 09:26:34;;;;;;;17.00;3.63;;;7.30;69.80;;;;;;4998479;28;20190;-90
2022/02/11 09:29:04;;;;;;;16.60;3.58;;;7.30;69.80;;;;;;5000740;28;20210;-90
2022/02/11 09:31:30;;;;;;;15.73;3.90;;;7.30;69.90;;;;;;5004195;28;20209;-90
2022/02/11 09:34:03;;;;;;;18.60;3.63;;;7.20;69.80;;;;;;5004717;28;20670;-90
2022/02/11 09:36:34;;;;;;;17.70;3.75;;;7.20;70.20;;;;;;5012223;28;20620;-89
2022/02/11 09:39:06;;;;;;;14.63;2.67;;;7.10;70.00;;;;;;5019686;28;20195;-90
2022/02/11 09:41:33;;;;;;;7.22;2.80;;;7.20;69.60;;;;;;4999783;28;20226;-90
2022/02/11 09:44:00;;;;;;;12.77;3.10;;;7.20;69.60;;;;;;5000406;28;20197;-90
2022/02/11 09:46:31;;;;;;;12.25;4.05;;;7.20;69.80;;;;;;5000677;28;20197;-89
2022/02/11 09:48:57;;;;;;;18.55;3.35;;;7.30;69.80;;;;;;5000026;28;20252;-90
2022/02/11 09:51:23;;;;;;;10.52;3.10;;;7.50;69.40;;;;;;5004836;28;20197;-89
2022/02/11 09:53:49;;;;;;;17.95;4.38;;;7.60;69.00;;;;;;5018101;28;20238;-91
2022/02/11 09:56:16;;;;;;;9.80;3.22;;;7.80;68.40;;;;;;5016644;28;20570;-93
2022/02/11 09:58:42;;;;;;;20.23;2.88;;;7.90;67.90;;;;;;5004509;28;20183;-93
2022/02/11 10:01:09;;;;;;;8.43;2.10;;;8.00;67.90;;;;;;5009453;28;20175;-92
2022/02/11 10:03:35;;;;;;;23.13;3.30;;;7.80;66.50;;;;;;5020480;28;20543;-89
2022/02/11 10:06:06;;;;;;;9.00;2.43;;;7.50;68.10;;;;;;4997793;28;20178;-89
2022/02/11 10:08:37;;;;;;;15.60;3.13;;;7.30;70.20;;;;;;4997501;28;20496;-89
2022/02/11 10:11:08;;;;;;;11.43;3.45;;;7.00;72.30;;;;;;4997479;28;20205;-89
2022/02/11 10:13:41;;;;;;;3.53;1.83;;;6.70;74.20;;;;;;5000872;28;20175;-91
2022/02/11 10:16:11;;;;;;;6.55;2.35;;;6.20;77.40;;;;;;5014761;28;20201;-90
2022/02/11 10:18:42;;;;;;;22.33;2.50;;;6.00;79.10;;;;;;5001770;28;20175;-90
2022/02/11 10:21:20;;;;;;;17.38;3.78;;;5.80;80.60;;;;;;5017727;28;20221;-90
2022/02/11 10:23:51;;;;;;;9.75;2.47;;;5.70;81.70;;;;;;5017089;28;20173;-90
2022/02/11 10:26:22;;;;;;;12.50;2.35;;;5.80;82.10;;;;;;5018895;28;20171;-91
2022/02/11 10:28:49;;;;;;;8.32;2.25;;;5.80;81.60;;;;;;5017280;28;20189;-91
2022/02/11 10:31:20;;;;;;;4.32;2.20;;;5.80;81.60;;;;;;5017697;28;20170;-91
2022/02/11 10:34:06;;;;;;;11.85;2.45;;;5.90;81.20;;;;;;5015953;28;20176;-91
2022/02/11 10:36:35;;;;;;;9.63;3.00;;;6.00;80.50;;;;;;5034831;28;20193;-91
2022/02/11 10:39:26;;;;;;;14.15;2.53;;;6.30;80.80;;;;;;5017536;28;20253;-92
2022/02/11 10:42:03;;;;;;;7.70;2.42;;;6.40;79.80;;;;;;5023420;28;20169;-91
2022/02/11 10:44:37;;;;;;;8.75;2.13;;;6.50;79.40;;;;;;5027533;28;20150;-89
2022/02/11 10:47:07;;;;;;;18.70;2.78;;;6.50;79.20;;;;;;5002148;28;20205;-91
2022/02/11 10:49:40;;;;;;;16.35;2.95;;;6.60;79.20;;;;;;5016112;28;20205;-91
2022/02/11 10:52:10;;;;;;;6.55;2.80;;;6.70;79.20;;;;;;5016392;28;20551;-90
2022/02/11 10:54:36;;;;;;;7.22;3.28;;;6.60;78.20;;;;;;5036166;28;20174;-90
2022/02/11 10:57:04;;;;;;;15.40;2.80;;;6.60;78.20;;;;;;5020916;28;20281;-90
2022/02/11 10:59:34;;;;;;;10.60;2.65;;;6.60;78.00;;;;;;5022035;28;20436;-90
2022/02/11 11:02:03;;;;;;;13.15;4.22;;;6.70;77.40;;;;;;5022496;28;20264;-89
2022/02/11 11:04:29;;;;;;;7.32;2.00;;;6.80;76.70;;;;;;5018116;28;20169;-90
2022/02/11 11:06:56;;;;;;;16.25;2.50;;;6.80;74.10;;;;;;5016622;28;20192;-90
2022/02/11 11:09:25;;;;;;;18.80;2.75;;;6.70;70.50;;;;;;5016043;28;20213;-91
2022/02/11 11:11:54;;;;;;;14.27;2.85;;;6.70;69.40;;;;;;5016061;28;20679;-90
2022/02/11 11:14:25;;;;;;;8.65;1.95;;;6.70;67.50;;;;;;5021045;28;20305;-90
2022/02/11 11:16:54;;;;;;;18.85;3.38;;;6.70;67.40;;;;;;5017348;28;20194;-90
2022/02/11 11:19:20;;;;;;;12.82;2.22;;;6.80;67.40;;;;;;5015865;28;20252;-89
2022/02/11 11:22:10;;;;;;;9.43;2.45;;;6.80;67.20;;;;;;5017230;28;20649;-90
2022/02/11 11:24:37;;;;;;;18.30;2.88;;;6.90;65.70;;;;;;5034324;28;20217;-91
2022/02/11 11:27:03;;;;;;;15.82;3.40;;;7.10;65.80;;;;;;5023851;28;20268;-89
2022/02/11 11:29:29;;;;;;;19.48;2.83;;;7.10;64.70;;;;;;5039355;28;20240;-88
2022/02/11 11:31:57;;;;;;;10.17;2.77;;;7.20;64.10;;;;;;5031919;28;20657;-88
2022/02/11 11:34:26;;;;;;;9.07;2.72;;;7.30;64.10;;;;;;5036052;28;20209;-89
2022/02/11 11:36:54;;;;;;;7.93;2.50;;;7.30;63.60;;;;;;5035720;28;20205;-88
2022/02/11 11:39:20;;;;;;;10.82;2.72;;;7.40;63.20;;;;;;5035492;28;20285;-88
2022/02/11 11:42:08;;;;;;;8.80;2.05;;;7.50;61.90;;;;;;5036017;28;20263;-88
2022/02/11 11:44:50;;;;;;;6.85;1.85;;;7.50;56.50;;;;;;5034709;28;20209;-88
2022/02/11 11:47:32;;;;;;;10.07;1.60;;;7.50;54.60;;;;;;5035698;28;20177;-89
2022/02/11 11:49:58;;;;;;;8.90;1.95;;;7.50;53.60;;;;;;5035196;28;20198;-88
2022/02/11 11:52:46;;;;;;;14.25;1.92;;;7.50;53.50;;;;;;5035383;28;20660;-90
2022/02/11 11:55:19;;;;;;;6.38;1.73;;;7.60;51.60;;;;;;5034200;28;20201;-88
2022/02/11 11:57:45;;;;;;;5.32;1.63;;;7.60;52.00;;;;;;5034689;28;20201;-88
2022/02/11 12:00:11;;;;;;;9.85;2.08;;;7.50;52.30;;;;;;5035560;28;20224;-89
2022/02/11 12:02:38;;;;;;;4.63;1.67;;;7.40;52.90;;;;;;5033863;28;20213;-89
2022/02/11 12:05:05;;;;;;;3.58;1.50;;;7.40;52.70;;;;;;5035690;28;20229;-89
2022/02/11 12:07:35;;;;;;;5.13;2.17;;;7.40;52.60;;;;;;5034551;28;20189;-88
2022/02/11 12:10:06;;;;;;;7.05;2.05;;;7.50;52.60;;;;;;5035488;28;20224;-88
2022/02/11 12:12:35;;;;;;;6.50;1.65;;;7.50;52.90;;;;;;5034965;28;20181;-89
2022/02/11 12:15:06;;;;;;;3.58;1.40;;;7.50;52.00;;;;;;5034813;28;20182;-89
2022/02/11 12:17:33;;;;;;;12.15;2.00;;;7.50;51.10;;;;;;5034557;28;20620;-89
2022/02/11 12:19:59;;;;;;;4.13;1.75;;;7.60;51.10;;;;;;5033985;28;20574;-90
2022/02/11 12:22:31;;;;;;;6.65;2.15;;;7.70;51.20;;;;;;5019534;28;20186;-90
2022/02/11 12:27:46;;;;;;;9.80;1.50;;;7.80;51.50;;;;;;5037569;28;20204;-89
2022/02/11 12:30:15;;;;;;;9.80;2.00;;;7.80;51.00;;;;;;5019528;28;20666;-88
2022/02/11 12:32:44;;;;;;;8.68;1.77;;;7.90;51.00;;;;;;5016921;28;20188;-89
2022/02/11 12:35:21;;;;;;;15.23;2.42;;;8.00;51.60;;;;;;5017056;28;20213;-89
2022/02/11 12:37:47;;;;;;;3.50;1.35;;;8.00;50.50;;;;;;5023793;28;20205;-89
2022/02/11 12:40:44;;;;;;;6.63;1.58;;;8.00;49.50;;;;;;5021133;28;20198;-89
2022/02/11 12:43:11;;;;;;;16.38;2.60;;;7.90;49.70;;;;;;5017179;28;20181;-89
2022/02/11 12:45:39;;;;;;;8.88;1.88;;;7.80;49.70;;;;;;5034741;28;20664;-89
2022/02/11 12:48:12;;;;;;;7.07;2.75;;;7.80;50.10;;;;;;5017165;28;20186;-89
2022/02/11 12:50:46;;;;;;;11.07;1.67;;;7.80;50.60;;;;;;5017983;28;20197;-89
2022/02/11 12:53:16;;;;;;;9.27;2.40;;;7.90;51.20;;;;;;5018321;28;20170;-90
2022/02/11 12:55:43;;;;;;;8.07;2.25;;;8.00;51.40;;;;;;5036167;28;20246;-89
2022/02/11 12:58:11;;;;;;;7.15;1.90;;;8.10;51.70;;;;;;5020923;28;20205;-89
2022/02/11 13:00:43;;;;;;;7.88;2.10;;;8.20;51.30;;;;;;5043345;28;20237;-89
2022/02/11 13:03:10;;;;;;;9.68;2.55;;;8.20;51.80;;;;;;5021494;28;20166;-89
2022/02/11 13:06:04;;;;;;;6.57;1.77;;;8.40;51.60;;;;;;5017288;28;20245;-92
2022/02/11 13:08:29;;;;;;;8.05;2.72;;;8.30;50.80;;;;;;4997972;28;20236;-89
2022/02/11 13:11:05;;;;;;;12.93;2.57;;;8.30;50.90;;;;;;4997426;28;20195;-89
2022/02/11 13:13:32;;;;;;;10.77;1.98;;;8.30;50.90;;;;;;5000373;28;20240;-89
2022/02/11 13:16:01;;;;;;;4.85;2.80;;;8.20;50.20;;;;;;5000381;28;20182;-89
2022/02/11 13:18:28;;;;;;;7.75;2.08;;;8.20;49.80;;;;;;5009624;28;20178;-91
2022/02/11 13:21:06;;;;;;;6.90;1.90;;;8.30;50.30;;;;;;5006754;28;20178;-89
2022/02/11 13:23:32;;;;;;;4.35;1.83;;;8.20;49.70;;;;;;5019982;28;20610;-91
2022/02/11 13:25:59;;;;;;;6.57;1.70;;;8.50;49.90;;;;;;5008265;28;20209;-91
2022/02/11 13:28:29;;;;;;;8.98;1.75;;;8.50;49.80;;;;;;4998152;28;20223;-90
2022/02/11 13:30:59;;;;;;;4.53;1.65;;;8.80;49.80;;;;;;4998181;28;20170;-90
2022/02/11 13:33:26;;;;;;;9.13;1.98;;;8.80;49.70;;;;;;4998295;28;20186;-90
2022/02/11 13:39:38;;;;;;;11.38;1.73;;;8.80;50.30;;;;;;5021870;28;20306;-89
2022/02/11 13:42:14;;;;;;;13.52;4.18;;;8.70;51.00;;;;;;5030315;28;20189;-90
2022/02/11 13:44:39;;;;;;;12.80;2.38;;;8.50;50.00;;;;;;5014193;28;20204;-89
2022/02/11 13:47:14;;;;;;;7.13;1.90;;;8.80;50.40;;;;;;5011697;28;20182;-90
2022/02/11 13:49:40;;;;;;;4.97;2.10;;;8.90;50.30;;;;;;5016666;28;20213;-89
2022/02/11 13:55:09;;;;;;;14.30;2.17;;;8.80;51.50;;;;;;5052142;28;20200;-90
2022/02/11 13:57:36;;;;;;;11.52;2.40;;;8.40;53.10;;;;;;5032222;28;20270;-90
2022/02/11 14:00:37;;;;;;;10.20;2.28;;;8.30;53.80;;;;;;5017996;28;20200;-90
2022/02/11 14:03:06;;;;;;;21.60;3.10;;;8.20;54.20;;;;;;5017115;28;20298;-91
2022/02/11 14:05:45;;;;;;;11.40;2.70;;;8.20;54.90;;;;;;5008994;28;20174;-89
2022/02/11 14:08:11;;;;;;;4.45;3.10;;;8.00;55.60;;;;;;5017663;28;20727;-89
2022/02/11 14:10:37;;;;;;;9.27;2.00;;;8.20;55.10;;;;;;5016029;28;20225;-90
2022/02/11 14:13:09;;;;;;;8.77;1.67;;;8.30;54.40;;;;;;5014984;28;20194;-90
2022/02/11 14:15:36;;;;;;;8.55;2.25;;;8.60;53.30;;;;;;5014034;28;20498;-91
2022/02/11 14:18:06;;;;;;;13.45;2.17;;;8.70;53.30;;;;;;5014518;28;20204;-90
2022/02/11 14:20:41;;;;;;;7.38;1.77;;;8.80;53.60;;;;;;5018507;28;20201;-91
2022/02/11 14:23:14;;;;;;;6.55;2.25;;;8.90;53.00;;;;;;5018010;28;20265;-90
2022/02/11 14:25:42;;;;;;;13.02;2.85;;;8.90;52.00;;;;;;5022904;28;20178;-94
2022/02/11 14:28:09;;;;;;;13.77;2.13;;;8.90;51.90;;;;;;5021809;28;20275;-91
2022/02/11 14:30:41;;;;;;;5.65;1.98;;;8.90;52.70;;;;;;5035368;28;20198;-91
2022/02/11 14:33:07;;;;;;;9.88;3.00;;;9.00;53.30;;;;;;5016787;28;20668;-89
2022/02/11 14:35:34;;;;;;;10.18;2.40;;;9.10;53.30;;;;;;5016395;28;20281;-90
2022/02/11 14:37:59;;;;;;;10.80;2.92;;;9.00;53.00;;;;;;5016946;28;20590;-92
2022/02/11 14:40:26;;;;;;;16.13;2.37;;;9.10;54.20;;;;;;4996652;28;20199;-89
2022/02/11 14:42:51;;;;;;;9.98;2.55;;;9.10;54.20;;;;;;4997478;28;20824;-89
2022/02/11 14:45:17;;;;;;;9.00;2.33;;;9.00;54.40;;;;;;4996361;28;20178;-89
2022/02/11 14:47:43;;;;;;;19.57;2.83;;;9.10;54.80;;;;;;4997183;28;20182;-91
2022/02/11 14:50:14;;;;;;;7.80;2.43;;;9.10;55.30;;;;;;4997192;28;20273;-90
2022/02/11 14:52:40;;;;;;;6.32;1.15;;;9.00;54.40;;;;;;4998212;28;20223;-89
2022/02/11 14:55:07;;;;;;;17.52;2.80;;;8.80;53.30;;;;;;5000929;28;20187;-89
2022/02/11 14:57:34;;;;;;;5.38;1.60;;;8.70;52.60;;;;;;5007456;28;20206;-89
2022/02/11 15:00:00;;;;;;;3.90;2.00;;;8.90;51.00;;;;;;5000747;28;20198;-90
2022/02/11 15:02:29;;;;;;;4.55;1.83;;;8.70;50.10;;;;;;4998183;28;20179;-89
2022/02/11 15:04:54;;;;;;;6.65;2.05;;;8.80;49.50;;;;;;4999036;28;20707;-91
2022/02/11 15:07:20;;;;;;;5.10;1.83;;;9.10;48.80;;;;;;5001996;28;20214;-89
2022/02/11 15:09:46;;;;;;;3.43;1.40;;;8.80;48.60;;;;;;5031620;28;20243;-89
2022/02/11 15:12:12;;;;;;;3.50;2.27;;;8.60;49.40;;;;;;5048556;28;20420;-88
2022/02/11 15:14:39;;;;;;;3.93;1.90;;;8.60;50.40;;;;;;5021687;28;20435;-89
2022/02/11 15:17:06;;;;;;;7.88;2.38;;;8.50;51.30;;;;;;5036311;28;20233;-89
2022/02/11 15:19:32;;;;;;;5.28;1.80;;;8.60;51.30;;;;;;5019975;28;20211;-90
2022/02/11 15:21:57;;;;;;;5.07;1.52;;;8.60;51.80;;;;;;5017608;28;20201;-90
2022/02/11 15:24:25;;;;;;;13.87;2.73;;;8.60;52.80;;;;;;5022543;28;20178;-90
2022/02/11 15:26:57;;;;;;;7.18;1.88;;;8.60;53.40;;;;;;5015277;28;20243;-91
2022/02/11 15:29:23;;;;;;;2.30;1.35;;;8.70;53.90;;;;;;5006261;28;20213;-91
2022/02/11 15:31:49;;;;;;;8.03;2.27;;;8.60;54.60;;;;;;5006148;28;20179;-92
2022/02/11 15:34:14;;;;;;;9.98;1.75;;;8.40;54.80;;;;;;5005073;28;20421;-91
2022/02/11 15:36:40;;;;;;;14.87;1.67;;;8.40;55.00;;;;;;5009161;28;20214;-91
2022/02/11 15:39:06;;;;;;;6.43;1.93;;;8.30;54.20;;;;;;5011090;28;20198;-91
2022/02/11 15:41:32;;;;;;;9.03;1.90;;;8.40;53.40;;;;;;5006861;28;20424;-92
2022/02/11 15:43:59;;;;;;;3.85;1.70;;;8.40;53.60;;;;;;5013492;28;20178;-92
2022/02/11 15:46:25;;;;;;;10.15;1.95;;;8.40;52.80;;;;;;5003480;28;20186;-92
2022/02/11 15:48:52;;;;;;;4.47;1.83;;;8.20;52.00;;;;;;5020250;28;20209;-92
2022/02/11 15:51:28;;;;;;;8.48;1.60;;;8.20;52.10;;;;;;5022382;28;20464;-91
2022/02/11 15:53:53;;;;;;;15.48;2.65;;;8.20;51.70;;;;;;5013418;28;20182;-90
2022/02/11 15:56:21;;;;;;;11.93;2.87;;;8.30;50.80;;;;;;5016758;28;20555;-90
2022/02/11 15:58:46;;;;;;;4.45;1.65;;;8.50;50.50;;;;;;5021167;28;20640;-90
2022/02/11 16:01:12;;;;;;;9.20;1.90;;;8.30;50.20;;;;;;5019644;28;20198;-91
2022/02/11 16:03:38;;;;;;;3.28;1.33;;;8.20;50.20;;;;;;5044221;28;20186;-90
2022/02/11 16:06:05;;;;;;;13.33;2.53;;;8.30;49.40;;;;;;5018756;28;20181;-91
2022/02/11 16:08:31;;;;;;;7.30;1.65;;;8.20;49.90;;;;;;5012261;28;20178;-90
2022/02/11 16:10:57;;;;;;;3.65;1.65;;;8.20;49.90;;;;;;5010250;28;20201;-90
2022/02/11 16:13:23;;;;;;;10.50;2.00;;;8.10;50.50;;;;;;5017408;28;20182;-90
2022/02/11 16:15:49;;;;;;;12.10;1.50;;;8.10;51.40;;;;;;5022749;28;20182;-90
2022/02/11 16:18:16;;;;;;;3.00;1.67;;;8.10;52.00;;;;;;5040707;28;20480;-90
2022/02/11 16:20:45;;;;;;;28.98;4.15;;;7.90;52.00;;;;;;5024332;28;20194;-90
2022/02/11 16:23:14;;;;;;;8.50;2.38;;;7.80;52.30;;;;;;5019404;28;20182;-92
2022/02/11 16:25:40;;;;;;;8.20;1.30;;;7.80;52.50;;;;;;5020394;28;20681;-92
2022/02/11 16:28:08;;;;;;;7.40;2.47;;;7.70;52.70;;;;;;5021220;28;20232;-92
2022/02/11 16:30:36;;;;;;;10.57;1.75;;;7.90;53.00;;;;;;5051256;28;20451;-89
2022/02/11 16:33:03;;;;;;;6.60;2.03;;;7.80;53.40;;;;;;5018834;28;20181;-89
2022/02/11 16:35:28;;;;;;;24.63;2.00;;;7.90;53.20;;;;;;5017472;28;20182;-89
2022/02/11 16:37:54;;;;;;;5.37;1.97;;;8.00;53.20;;;;;;5022033;28;20259;-96
2022/02/11 16:40:20;;;;;;;5.43;1.93;;;8.00;54.10;;;;;;5019047;28;20572;-90
2022/02/11 16:42:47;;;;;;;10.90;2.42;;;7.90;55.00;;;;;;5017852;28;20420;-90
2022/02/11 16:45:13;;;;;;;4.45;2.28;;;7.90;55.20;;;;;;5020537;28;20273;-90
2022/02/11 16:47:40;;;;;;;7.87;2.10;;;7.90;55.50;;;;;;5026080;28;20197;-90
2022/02/11 16:50:07;;;;;;;10.15;1.80;;;7.60;56.00;;;;;;5020798;28;20447;-90
2022/02/11 16:52:33;;;;;;;7.53;1.80;;;7.60;56.40;;;;;;5018209;28;20313;-90
2022/02/11 16:55:09;;;;;;;6.28;1.60;;;7.70;56.30;;;;;;5017520;28;20188;-90
2022/02/11 16:57:35;;;;;;;14.70;1.95;;;7.80;56.30;;;;;;5019353;28;20212;-90
2022/02/11 17:00:02;;;;;;;4.57;1.80;;;7.40;56.90;;;;;;5023366;28;20204;-89